Terminal Aerodrome Forecast
Issued by NWS Charleston, WV

Current Version | Previous Version | Text Only | Print | Product List | Glossary Off
Versions: 1 2 3 4 5 6 7 8 9 10 11 12 13 14 15 16 17 18 19 20 21 22 23 24

000
FTUS41 KRLX 140700 AAA
TAFHTS
TAF AMD
KHTS 140714Z 1407/1506 00000KT 1/4SM FG VV001
     FM141230 07004KT 3SM BR FEW250
     FM141400 VRB03KT P6SM FEW250
     FM150500 VRB03KT 4SM BR SCT045=

USA.gov is the U.S. government's official web portal to all federal, state and local government web resources and services.